Time;durP1;ratioP1;P1;durP2;ratioP2;P2;SDS_P1;SDS_P2;PMS_P1;PMS_P2;Temp;Humidity;BMP_temperature;BMP_pressure;BME280_temperature;BME280_humidity;BME280_pressure;Samples;Min_cycle;Max_cycle;Signal;HPM_P1;HPM_P2
2022/12/01 00:01:20;;;;;;;18.27;10.63;;;;;;;6.70;54.99;102160.09;5053040;28;20040;-73
2022/12/01 00:03:48;;;;;;;19.95;10.98;;;;;;;6.70;55.20;102151.94;5047854;28;20563;-74
2022/12/01 00:06:18;;;;;;;18.13;10.40;;;;;;;6.70;55.22;102165.53;5047565;28;20036;-74
2022/12/01 00:11:36;;;;;;;18.08;10.02;;;;;;;6.67;55.39;102155.72;5047437;28;20049;-74
2022/12/01 00:14:05;;;;;;;15.95;9.82;;;;;;;6.68;55.15;102165.63;5047024;28;20041;-73
2022/12/01 00:16:34;;;;;;;19.05;10.25;;;;;;;6.68;55.37;102146.59;5048698;28;20124;-74
2022/12/01 00:19:02;;;;;;;19.58;10.77;;;;;;;6.67;55.39;102153.00;5046841;28;20124;-74
2022/12/01 00:21:30;;;;;;;17.48;10.32;;;;;;;6.69;55.07;102150.19;5054613;28;20064;-74
2022/12/01 00:23:59;;;;;;;17.63;10.20;;;;;;;6.70;55.00;102143.78;5053058;28;20045;-74
2022/12/01 00:26:27;;;;;;;17.70;10.20;;;;;;;6.69;55.08;102147.47;5047270;28;20045;-74
2022/12/01 00:28:59;;;;;;;18.27;11.10;;;;;;;6.71;54.99;102148.25;5046092;28;20049;-74
2022/12/01 00:31:27;;;;;;;20.00;10.93;;;;;;;6.70;55.21;102141.03;5047539;28;20462;-74
2022/12/01 00:33:55;;;;;;;18.95;10.90;;;;;;;6.70;54.79;102146.50;5038968;28;20239;-74
2022/12/01 00:36:23;;;;;;;19.05;11.13;;;;;;;6.70;55.14;102144.66;5039288;28;20494;-74
2022/12/01 00:38:52;;;;;;;20.20;11.13;;;;;;;6.70;55.05;102138.31;5051967;28;20037;-74
2022/12/01 00:41:23;;;;;;;17.40;10.70;;;;;;;6.70;55.17;102144.66;5050229;28;20552;-74
2022/12/01 00:43:51;;;;;;;21.58;11.40;;;;;;;6.69;54.84;102140.19;5043501;28;20041;-74
2022/12/01 00:46:19;;;;;;;21.67;11.43;;;;;;;6.69;55.03;102142.03;5049557;28;20040;-74
2022/12/01 00:48:48;;;;;;;19.75;11.55;;;;;;;6.69;54.91;102140.19;5046745;28;20421;-74
2022/12/01 00:51:17;;;;;;;21.25;11.25;;;;;;;6.68;54.83;102146.59;5048478;28;20434;-74
2022/12/01 00:53:45;;;;;;;18.58;11.02;;;;;;;6.68;54.69;102143.88;5044364;28;20447;-74
2022/12/01 00:56:13;;;;;;;19.58;11.43;;;;;;;6.67;55.07;102149.38;5050704;28;20047;-74
2022/12/01 00:58:43;;;;;;;18.50;10.40;;;;;;;6.68;54.65;102143.88;5052500;28;20057;-74
2022/12/01 01:01:10;;;;;;;17.77;10.52;;;;;;;6.66;54.81;102148.50;5046658;28;20045;-74
2022/12/01 01:03:38;;;;;;;18.65;10.95;;;;;;;6.64;55.07;102149.53;5043055;28;20473;-74
2022/12/01 01:06:08;;;;;;;19.73;11.38;;;;;;;6.64;54.81;102166.72;5050539;28;20401;-73
2022/12/01 01:08:36;;;;;;;21.17;11.30;;;;;;;6.62;54.95;102160.47;5063759;28;20045;-74
2022/12/01 01:11:06;;;;;;;22.23;12.05;;;;;;;6.59;54.68;102162.50;5047005;28;20601;-74
2022/12/01 01:13:35;;;;;;;22.35;11.85;;;;;;;6.58;54.55;102164.34;5047386;28;20409;-74
2022/12/01 01:16:07;;;;;;;20.33;11.18;;;;;;;6.56;54.71;102160.81;5046963;28;20417;-74
2022/12/01 01:18:35;;;;;;;18.05;10.93;;;;;;;6.52;54.48;102161.94;5042966;28;20401;-73
2022/12/01 01:21:05;;;;;;;20.33;11.50;;;;;;;6.52;54.74;102158.31;5043195;28;20041;-73
2022/12/01 01:23:34;;;;;;;19.75;11.35;;;;;;;6.50;54.71;102158.41;5045018;28;20041;-74
2022/12/01 01:26:02;;;;;;;16.98;10.15;;;;;;;6.49;55.00;102166.63;5052186;28;20055;-74
2022/12/01 01:28:30;;;;;;;17.25;10.20;;;;;;;6.49;55.16;102172.94;5047496;28;20051;-74
2022/12/01 01:30:58;;;;;;;20.33;11.15;;;;;;;6.48;55.02;102171.19;5045081;28;20090;-74
2022/12/01 01:33:27;;;;;;;18.80;11.25;;;;;;;6.49;55.01;102164.78;5050218;28;20052;-74
2022/12/01 01:35:58;;;;;;;18.52;10.77;;;;;;;6.50;55.03;102177.44;5058048;28;20311;-74
2022/12/01 01:38:26;;;;;;;19.05;9.82;;;;;;;6.48;55.14;102179.34;5050763;28;20045;-74
2022/12/01 01:40:55;;;;;;;18.15;10.25;;;;;;;6.49;54.77;102178.38;5041495;28;20122;-74
2022/12/01 01:43:40;;;;;;;16.20;9.60;;;;;;;6.51;54.94;102178.31;5048203;28;20061;-74
2022/12/01 01:46:10;;;;;;;19.48;10.50;;;;;;;6.49;54.79;102177.50;5044649;28;20454;-73
2022/12/01 01:48:41;;;;;;;19.65;10.65;;;;;;;6.50;54.99;102184.72;5050156;28;20075;-74
2022/12/01 01:51:13;;;;;;;20.00;10.55;;;;;;;6.50;55.13;102182.00;5044071;28;20041;-74
2022/12/01 01:53:41;;;;;;;20.55;11.38;;;;;;;6.48;54.93;102179.34;5050295;28;20044;-74
2022/12/01 01:56:10;;;;;;;18.88;10.52;;;;;;;6.46;55.36;102178.53;5047898;28;20135;-73
2022/12/01 01:58:40;;;;;;;19.10;10.90;;;;;;;6.48;55.03;102178.47;5050683;28;20048;-74
2022/12/01 02:01:08;;;;;;;20.92;11.52;;;;;;;6.47;54.99;102182.13;5048846;28;20064;-74
2022/12/01 02:03:40;;;;;;;20.25;11.35;;;;;;;6.48;55.07;102183.91;5049273;28;20037;-73
2022/12/01 02:06:09;;;;;;;19.92;11.30;;;;;;;6.45;55.16;102174.03;5048709;28;20048;-74
2022/12/01 02:08:37;;;;;;;22.63;11.95;;;;;;;6.44;55.16;102178.63;5049886;28;20044;-74
2022/12/01 02:11:31;;;;;;;23.20;12.95;;;;;;;6.46;55.10;102189.41;5048752;28;20136;-74
2022/12/01 02:14:08;;;;;;;25.58;12.15;;;;;;;6.44;55.11;102183.19;5046787;28;20085;-74
2022/12/01 02:16:44;;;;;;;25.58;12.23;;;;;;;6.41;55.03;102181.50;5048880;28;20045;-73
2022/12/01 02:19:40;;;;;;;26.70;13.35;;;;;;;6.39;54.93;102177.94;5052927;28;20045;-74
2022/12/01 02:22:22;;;;;;;26.98;12.20;;;;;;;6.39;54.97;102186.13;5042499;28;20055;-73
2022/12/01 02:25:07;;;;;;;26.83;11.93;;;;;;;6.38;54.92;102180.75;5060196;28;20048;-74
2022/12/01 02:27:59;;;;;;;25.45;12.35;;;;;;;6.38;55.00;102178.91;5056449;28;20048;-73
2022/12/01 02:30:38;;;;;;;24.45;13.02;;;;;;;6.33;55.22;102177.38;5041591;28;20452;-73
2022/12/01 02:33:13;;;;;;;23.88;12.27;;;;;;;6.34;55.35;102179.16;5055819;28;20044;-74
2022/12/01 02:35:48;;;;;;;25.83;13.32;;;;;;;6.33;55.10;102171.94;5057050;28;20476;-73
2022/12/01 02:38:25;;;;;;;27.85;13.43;;;;;;;6.33;55.40;102180.97;5046737;28;20040;-74
2022/12/01 02:41:00;;;;;;;24.35;12.10;;;;;;;6.32;55.24;102179.22;5048853;28;20434;-74
2022/12/01 02:43:33;;;;;;;27.55;13.32;;;;;;;6.32;55.29;102172.91;5048406;28;20420;-74
2022/12/01 02:46:10;;;;;;;24.60;12.43;;;;;;;6.31;55.55;102174.72;5045541;28;20037;-74
2022/12/01 02:48:41;;;;;;;26.38;12.35;;;;;;;6.29;55.17;102171.19;5061710;28;20047;-74
2022/12/01 02:51:14;;;;;;;28.85;13.27;;;;;;;6.29;55.22;102165.75;5053009;28;20075;-74
2022/12/01 02:53:43;;;;;;;29.40;13.45;;;;;;;6.26;55.26;102165.94;5057948;28;20071;-74
2022/12/01 02:56:13;;;;;;;28.98;13.88;;;;;;;6.28;55.18;102164.00;5056254;28;20536;-74
2022/12/01 02:58:42;;;;;;;27.30;13.38;;;;;;;6.27;55.27;102169.53;5045205;28;20048;-74
2022/12/01 03:01:24;;;;;;;25.95;12.85;;;;;;;6.27;55.77;102175.84;5032469;28;20160;-74
2022/12/01 03:04:16;;;;;;;25.08;12.55;;;;;;;6.24;55.48;102167.84;5043187;28;20063;-75
2022/12/01 03:06:53;;;;;;;27.45;12.80;;;;;;;6.25;55.62;102172.31;5045915;28;20490;-75
2022/12/01 03:09:30;;;;;;;25.00;11.25;;;;;;;6.27;55.50;102177.69;5048119;28;20106;-75
2022/12/01 03:12:10;;;;;;;23.95;12.30;;;;;;;6.28;56.02;102169.44;5048879;28;20048;-74
2022/12/01 03:14:42;;;;;;;23.83;11.98;;;;;;;6.27;55.61;102170.41;5046050;28;20065;-74
2022/12/01 03:17:18;;;;;;;26.10;13.40;;;;;;;6.27;55.63;102172.25;5047432;28;20055;-74
2022/12/01 03:19:49;;;;;;;26.10;12.65;;;;;;;6.28;55.75;102174.88;5044744;28;20438;-74
2022/12/01 03:22:24;;;;;;;25.30;12.53;;;;;;;6.30;55.65;102172.09;5046313;28;20051;-74
2022/12/01 03:24:55;;;;;;;25.50;12.13;;;;;;;6.32;55.96;102178.34;5047467;28;20303;-74
2022/12/01 03:27:30;;;;;;;27.63;12.63;;;;;;;6.34;55.69;102173.72;5048777;28;20045;-74
2022/12/01 03:30:01;;;;;;;25.75;12.77;;;;;;;6.34;55.55;102173.72;5048895;28;20159;-74
2022/12/01 03:32:35;;;;;;;27.92;12.68;;;;;;;6.34;55.71;102174.59;5058808;28;20060;-75
2022/12/01 03:35:09;;;;;;;24.67;12.07;;;;;;;6.34;55.57;102171.88;5048019;28;20361;-74
2022/12/01 03:37:42;;;;;;;28.38;13.90;;;;;;;6.33;55.43;102174.66;5048494;28;20470;-75
2022/12/01 03:40:16;;;;;;;24.33;11.93;;;;;;;6.30;55.54;102170.25;5045591;28;20393;-75
2022/12/01 03:42:47;;;;;;;25.42;12.20;;;;;;;6.32;55.48;102176.50;5046977;28;20544;-75
2022/12/01 03:45:20;;;;;;;28.58;13.32;;;;;;;6.31;55.31;102177.44;5044290;28;20049;-74
2022/12/01 03:47:49;;;;;;;23.47;12.30;;;;;;;6.29;55.49;102171.19;5042456;28;20521;-73
2022/12/01 03:50:18;;;;;;;27.23;13.45;;;;;;;6.31;55.58;102179.28;5044858;28;20049;-75
2022/12/01 03:52:53;;;;;;;28.00;12.93;;;;;;;6.29;55.39;102168.47;5052847;28;20135;-75
2022/12/01 03:55:26;;;;;;;28.42;14.43;;;;;;;6.26;55.62;102168.66;5045950;28;20041;-74
2022/12/01 03:57:58;;;;;;;26.77;14.15;;;;;;;6.26;55.28;102181.34;5062021;28;20588;-75
2022/12/01 04:00:26;;;;;;;29.17;13.98;;;;;;;6.22;55.77;102177.91;5046001;28;20045;-75
2022/12/01 04:02:57;;;;;;;28.73;14.63;;;;;;;6.25;55.35;102172.31;5050092;28;20041;-74
2022/12/01 04:05:26;;;;;;;29.83;14.88;;;;;;;6.24;55.54;102172.38;5048717;28;20060;-75
2022/12/01 04:07:55;;;;;;;28.75;13.98;;;;;;;6.23;55.33;102176.06;5059302;23;20029;-67
2022/12/01 04:10:23;;;;;;;28.95;13.45;;;;;;;6.24;55.54;102188.69;5058027;28;20102;-67
2022/12/01 04:12:50;;;;;;;24.65;12.98;;;;;;;6.24;55.68;102180.53;5044395;28;20043;-68
2022/12/01 04:15:18;;;;;;;25.40;12.27;;;;;;;6.24;55.92;102180.53;5045714;28;20099;-66
2022/12/01 04:17:46;;;;;;;25.52;12.50;;;;;;;6.24;55.68;102184.16;5039643;28;20053;-67
2022/12/01 04:20:16;;;;;;;28.52;13.70;;;;;;;6.24;55.68;102184.16;5045590;28;20119;-67
2022/12/01 04:22:44;;;;;;;26.35;12.85;;;;;;;6.25;55.73;102182.31;5047445;28;20048;-67
2022/12/01 04:25:12;;;;;;;27.80;13.70;;;;;;;6.26;55.56;102184.06;5046381;28;20090;-67
2022/12/01 04:27:40;;;;;;;24.23;13.32;;;;;;;6.26;55.46;102184.06;5047461;28;20036;-67
2022/12/01 04:30:09;;;;;;;27.73;13.18;;;;;;;6.27;55.32;102180.41;5034282;28;20049;-68
2022/12/01 04:32:39;;;;;;;27.45;14.30;;;;;;;6.26;55.41;102182.25;5047246;28;20045;-73
2022/12/01 04:35:08;;;;;;;25.73;13.43;;;;;;;6.26;55.33;102174.09;5044723;28;20532;-67
2022/12/01 04:37:38;;;;;;;23.23;12.73;;;;;;;6.27;55.60;102178.56;5047168;28;20056;-67
2022/12/01 04:40:08;;;;;;;23.42;12.40;;;;;;;6.26;55.19;102181.34;5038975;28;20067;-67
2022/12/01 04:42:35;;;;;;;25.10;12.27;;;;;;;6.25;55.41;102179.59;5047054;28;20044;-67
2022/12/01 04:45:04;;;;;;;23.80;12.43;;;;;;;6.25;55.40;102180.47;5045528;28;20044;-67
2022/12/01 04:47:31;;;;;;;23.73;12.40;;;;;;;6.24;55.18;102177.81;5039314;28;20521;-67
2022/12/01 04:49:59;;;;;;;21.50;11.80;;;;;;;6.23;55.33;102174.22;5046023;28;20114;-67
2022/12/01 04:52:27;;;;;;;24.05;12.13;;;;;;;6.24;55.30;102172.38;5034261;28;20076;-67
2022/12/01 04:55:03;;;;;;;21.95;11.82;;;;;;;6.24;55.18;102175.09;5046161;28;20049;-69
2022/12/01 04:57:31;;;;;;;20.10;11.88;;;;;;;6.24;55.36;102175.09;5047226;28;20052;-67
2022/12/01 04:59:59;;;;;;;21.80;11.20;;;;;;;6.23;55.40;102174.22;5043027;28;20406;-67
2022/12/01 05:02:26;;;;;;;23.60;12.07;;;;;;;6.23;55.10;102171.50;5047926;28;20115;-68
2022/12/01 05:04:54;;;;;;;22.55;11.32;;;;;;;6.23;55.25;102170.63;5041765;28;20452;-68
2022/12/01 05:07:22;;;;;;;21.50;11.40;;;;;;;6.23;54.89;102167.91;5046245;28;20048;-67
2022/12/01 05:09:50;;;;;;;21.65;11.32;;;;;;;6.23;55.19;102171.50;5046604;28;20209;-67
2022/12/01 05:12:20;;;;;;;24.45;11.18;;;;;;;6.24;55.20;102172.38;5046783;28;20132;-67
2022/12/01 05:14:48;;;;;;;20.13;11.18;;;;;;;6.22;54.84;102177.91;5044842;28;20044;-67
2022/12/01 05:17:15;;;;;;;21.05;11.50;;;;;;;6.23;54.88;102174.22;5045400;28;20551;-67
2022/12/01 05:22:29;;;;;;;18.40;10.13;;;;;;;6.22;55.00;102171.56;5042684;28;20075;-67
2022/12/01 05:25:17;;;;;;;18.13;10.23;;;;;;;6.20;54.69;102179.78;5025073;28;20048;-67
2022/12/01 05:27:46;;;;;;;19.85;10.90;;;;;;;6.22;54.61;102177.00;5045845;28;20041;-68
2022/12/01 05:30:14;;;;;;;22.08;11.15;;;;;;;6.21;54.65;102183.41;5048547;28;20045;-67
2022/12/01 05:32:42;;;;;;;19.13;11.05;;;;;;;6.19;54.57;102180.78;5050246;28;20048;-67
2022/12/01 05:35:10;;;;;;;23.48;12.45;;;;;;;6.17;54.67;102181.81;5047612;28;20132;-67
2022/12/01 05:37:38;;;;;;;21.88;12.38;;;;;;;6.15;54.66;102180.97;5047077;28;20041;-67
2022/12/01 05:40:07;;;;;;;22.35;11.75;;;;;;;6.15;54.63;102181.88;5048142;28;20079;-67
2022/12/01 05:42:35;;;;;;;21.55;11.13;;;;;;;6.14;54.97;102187.38;5046148;28;20045;-66
2022/12/01 05:45:05;;;;;;;22.27;12.10;;;;;;;6.12;54.65;102184.72;5045219;28;20048;-67
2022/12/01 05:47:32;;;;;;;21.58;11.85;;;;;;;6.11;54.69;102193.84;5050598;28;20493;-67
2022/12/01 05:50:00;;;;;;;21.58;11.68;;;;;;;6.11;54.50;102185.72;5049520;28;20510;-67
2022/12/01 05:52:33;;;;;;;20.52;11.90;;;;;;;6.11;54.54;102195.69;5039526;28;20087;-68
2022/12/01 05:55:01;;;;;;;18.92;11.65;;;;;;;6.10;54.83;102197.53;5044125;28;20426;-67
2022/12/01 05:57:30;;;;;;;20.95;11.27;;;;;;;6.10;54.80;102186.66;5050857;28;20401;-67
2022/12/01 05:59:57;;;;;;;19.63;11.32;;;;;;;6.11;54.54;102184.81;5036166;28;20091;-68
2022/12/01 06:02:27;;;;;;;19.33;11.73;;;;;;;6.12;54.80;102192.03;5049694;28;20076;-68
2022/12/01 06:04:55;;;;;;;21.98;12.05;;;;;;;6.11;54.79;102192.97;5049376;28;20508;-67
2022/12/01 06:07:24;;;;;;;20.83;11.57;;;;;;;6.11;54.84;102185.72;5050706;28;20128;-67
2022/12/01 06:09:53;;;;;;;23.23;12.13;;;;;;;6.12;55.02;102192.03;5049703;28;20049;-68
2022/12/01 06:12:21;;;;;;;19.63;10.38;;;;;;;6.13;54.76;102191.03;5051710;28;20041;-67
2022/12/01 06:14:48;;;;;;;20.92;11.88;;;;;;;6.13;54.69;102200.06;5050200;28;20041;-67
2022/12/01 06:17:16;;;;;;;22.63;11.52;;;;;;;6.15;54.70;102198.19;5063589;28;20045;-67
2022/12/01 06:19:46;;;;;;;22.67;12.18;;;;;;;6.17;55.12;102201.72;5069810;28;20505;-68
2022/12/01 06:22:15;;;;;;;21.85;11.48;;;;;;;6.17;54.72;102207.16;5058030;28;20444;-67
2022/12/01 06:24:42;;;;;;;22.55;11.30;;;;;;;6.19;55.05;102209.81;5049934;28;20451;-67
2022/12/01 06:27:10;;;;;;;20.42;11.30;;;;;;;6.20;55.09;102211.56;5050692;28;20398;-67
2022/12/01 06:29:38;;;;;;;21.33;11.48;;;;;;;6.21;54.69;102210.59;5041332;28;20041;-68
2022/12/01 06:32:09;;;;;;;22.38;12.05;;;;;;;6.22;54.78;102209.63;5043980;28;20041;-68
2022/12/01 06:34:37;;;;;;;21.35;11.88;;;;;;;6.20;54.81;102217.84;5041613;28;20099;-68
2022/12/01 06:37:06;;;;;;;24.10;12.32;;;;;;;6.19;54.51;102210.69;5050462;28;20402;-69
2022/12/01 06:39:34;;;;;;;21.40;11.98;;;;;;;6.19;54.58;102217.94;5047332;28;20037;-67
2022/12/01 06:42:01;;;;;;;23.83;12.13;;;;;;;6.18;54.56;102216.19;5049583;28;20091;-67
2022/12/01 06:44:30;;;;;;;26.45;12.88;;;;;;;6.18;54.80;102218.91;5048271;28;20489;-68
2022/12/01 06:46:57;;;;;;;26.58;13.88;;;;;;;6.14;54.75;102215.44;5049489;28;20071;-68
2022/12/01 06:49:25;;;;;;;24.85;13.43;;;;;;;6.16;54.66;102220.81;5047602;28;20099;-68
2022/12/01 06:51:53;;;;;;;24.77;13.43;;;;;;;6.14;54.57;102220.00;5049292;28;20041;-68
2022/12/01 06:54:22;;;;;;;27.55;13.70;;;;;;;6.13;54.57;102221.81;5048328;28;20041;-69
2022/12/01 06:56:50;;;;;;;25.88;12.23;;;;;;;6.12;54.76;102219.19;5049344;28;20048;-70
2022/12/01 06:59:19;;;;;;;23.20;12.13;;;;;;;6.13;54.60;102220.94;5048964;28;20509;-66
2022/12/01 07:01:47;;;;;;;23.50;12.32;;;;;;;6.12;54.58;102227.34;5041708;28;20045;-67
2022/12/01 07:04:15;;;;;;;23.92;12.02;;;;;;;6.12;54.56;102224.66;5042667;28;20036;-67
2022/12/01 07:06:42;;;;;;;22.42;12.40;;;;;;;6.12;54.61;102224.66;5051777;28;20041;-66
2022/12/01 07:09:10;;;;;;;22.15;12.15;;;;;;;6.12;55.05;102220.06;5048027;28;20130;-67
2022/12/01 07:11:39;;;;;;;26.52;14.05;;;;;;;6.12;54.96;102222.78;5048383;28;20292;-66
2022/12/01 07:14:16;;;;;;;26.40;13.95;;;;;;;6.13;54.79;102224.53;5035820;28;20041;-67
2022/12/01 07:16:44;;;;;;;22.40;11.95;;;;;;;6.12;54.90;102230.06;5048564;28;20037;-66
2022/12/01 07:19:12;;;;;;;23.80;12.32;;;;;;;6.13;54.64;102238.13;5048045;28;20128;-66
2022/12/01 07:21:39;;;;;;;21.27;11.27;;;;;;;6.13;54.61;102226.38;5049522;28;20036;-66
2022/12/01 07:24:08;;;;;;;22.50;11.77;;;;;;;6.14;54.91;102228.16;5047249;28;20447;-67
2022/12/01 07:26:36;;;;;;;22.23;11.48;;;;;;;6.14;54.74;102231.75;5049333;28;20115;-67
2022/12/01 07:29:05;;;;;;;22.02;11.18;;;;;;;6.16;54.97;102229.84;5048685;28;20041;-67
2022/12/01 07:31:33;;;;;;;21.05;12.05;;;;;;;6.15;54.98;102230.78;5051747;28;20037;-66
2022/12/01 07:34:00;;;;;;;25.50;12.48;;;;;;;6.17;54.71;102228.91;5043972;28;20102;-67
2022/12/01 07:36:28;;;;;;;22.17;12.57;;;;;;;6.17;54.84;102228.00;5046095;28;20537;-67
2022/12/01 07:38:56;;;;;;;21.15;11.45;;;;;;;6.18;54.78;102221.63;5048042;28;20045;-67
2022/12/01 07:41:24;;;;;;;23.95;12.30;;;;;;;6.18;54.87;102235.22;5040413;28;20144;-67
2022/12/01 07:43:52;;;;;;;23.08;11.88;;;;;;;6.19;54.68;102242.41;5048544;28;20051;-67
2022/12/01 07:46:24;;;;;;;21.45;11.38;;;;;;;6.19;54.44;102237.88;5049370;28;20045;-66
2022/12/01 07:48:53;;;;;;;26.92;12.77;;;;;;;6.17;54.74;102238.88;5047789;28;20052;-67
2022/12/01 07:51:22;;;;;;;21.95;12.13;;;;;;;6.18;54.77;102246.97;5042101;28;20037;-68
2022/12/01 07:53:51;;;;;;;24.95;12.82;;;;;;;6.17;54.97;102241.59;5047279;28;20045;-69
2022/12/01 07:56:21;;;;;;;24.50;11.90;;;;;;;6.17;54.44;102247.94;5046502;28;20056;-68
2022/12/01 07:58:49;;;;;;;25.05;12.63;;;;;;;6.16;54.83;102248.00;5043997;28;20247;-68
2022/12/01 08:01:20;;;;;;;23.80;12.18;;;;;;;6.17;54.47;102247.03;5040908;28;20045;-69
2022/12/01 08:03:50;;;;;;;26.27;14.38;;;;;;;6.16;54.84;102248.88;5035894;28;20048;-68
2022/12/01 08:06:21;;;;;;;25.33;13.07;;;;;;;6.16;54.89;102242.56;5046294;28;20069;-68
2022/12/01 08:08:49;;;;;;;23.30;12.05;;;;;;;6.14;55.04;102249.88;5039248;28;20044;-69
2022/12/01 08:11:19;;;;;;;23.50;11.57;;;;;;;6.16;54.98;102253.44;5035628;28;20106;-69
2022/12/01 08:13:48;;;;;;;28.10;13.77;;;;;;;6.15;54.56;102254.38;5036088;28;20096;-69
2022/12/01 08:16:18;;;;;;;26.65;13.23;;;;;;;6.15;54.55;102255.25;5043021;28;20438;-68
2022/12/01 08:18:45;;;;;;;26.05;13.30;;;;;;;6.15;54.93;102259.81;5046274;28;20049;-74
2022/12/01 08:21:17;;;;;;;27.95;13.95;;;;;;;6.15;54.83;102257.09;5045397;28;20456;-69
2022/12/01 08:23:45;;;;;;;28.83;14.35;;;;;;;6.15;54.75;102263.41;5048182;28;20053;-68
2022/12/01 08:26:15;;;;;;;28.80;13.95;;;;;;;6.15;54.84;102265.25;5047304;28;20052;-69
2022/12/01 08:28:43;;;;;;;30.52;14.80;;;;;;;6.14;54.67;102263.47;5047697;28;20049;-69
2022/12/01 08:31:14;;;;;;;24.58;13.82;;;;;;;6.14;54.94;102263.47;5042410;28;20053;-70
2022/12/01 08:33:43;;;;;;;30.83;14.90;;;;;;;6.10;55.00;102261.88;5039279;28;20032;-68
2022/12/01 08:36:11;;;;;;;26.05;13.52;;;;;;;6.13;54.55;102264.44;5036010;28;20509;-68
2022/12/01 08:38:43;;;;;;;26.60;13.05;;;;;;;6.14;54.83;102264.38;5046308;28;20124;-68
2022/12/01 08:41:12;;;;;;;28.48;14.02;;;;;;;6.13;54.89;102269.88;5045121;28;20052;-69
2022/12/01 08:43:41;;;;;;;31.08;15.40;;;;;;;6.12;54.78;102273.56;5047244;28;20041;-73
2022/12/01 08:46:25;;;;;;;28.95;15.80;;;;;;;6.09;54.88;102279.13;5043055;28;20460;-68
2022/12/01 08:48:56;;;;;;;32.20;14.73;;;;;;;6.10;54.97;102272.75;5039205;28;20041;-69
2022/12/01 08:51:25;;;;;;;29.42;15.20;;;;;;;6.08;54.59;102280.97;5045061;28;20071;-71
2022/12/01 08:53:56;;;;;;;31.40;15.43;;;;;;;6.10;54.64;102272.75;5046778;28;20048;-72
2022/12/01 08:56:28;;;;;;;30.08;15.60;;;;;;;6.07;54.82;102271.94;5045677;28;20074;-68
2022/12/01 08:58:57;;;;;;;28.92;15.45;;;;;;;6.05;54.74;102270.22;5035259;28;20250;-70
2022/12/01 09:01:25;;;;;;;32.95;15.55;;;;;;;6.06;54.82;102274.72;5025677;28;20095;-70
2022/12/01 09:04:04;;;;;;;26.40;14.00;;;;;;;6.06;54.89;102272.88;5028569;28;20037;-70
2022/12/01 09:06:37;;;;;;;29.05;15.15;;;;;;;6.05;54.89;102272.94;5031121;28;20045;-71
2022/12/01 09:09:07;;;;;;;28.73;14.25;;;;;;;6.05;54.74;102276.53;5029223;28;20042;-70
2022/12/01 09:11:37;;;;;;;28.30;14.27;;;;;;;6.05;55.18;102279.25;5032838;28;20472;-70
2022/12/01 09:14:05;;;;;;;29.02;14.32;;;;;;;6.04;54.82;102280.22;5031197;28;20533;-69
2022/12/01 09:16:32;;;;;;;27.58;15.35;;;;;;;6.02;54.79;102282.16;5032252;28;20045;-70
2022/12/01 09:19:01;;;;;;;32.03;15.77;;;;;;;6.00;54.86;102285.88;5028937;28;20055;-69
2022/12/01 09:21:30;;;;;;;30.50;15.48;;;;;;;6.01;54.79;102284.94;5032441;28;20053;-69
2022/12/01 09:23:59;;;;;;;26.55;14.00;;;;;;;5.99;55.09;102285.00;5031210;28;20056;-69
2022/12/01 09:26:28;;;;;;;30.50;14.98;;;;;;;6.00;54.93;102288.59;5030060;28;20046;-70
2022/12/01 09:28:58;;;;;;;27.50;13.80;;;;;;;5.98;54.94;102294.09;5031088;28;20037;-70
2022/12/01 09:31:26;;;;;;;26.45;13.35;;;;;;;5.98;54.95;102291.38;5032191;28;20049;-69
2022/12/01 09:33:55;;;;;;;28.23;13.40;;;;;;;5.99;54.90;102287.72;5030519;28;20569;-69
2022/12/01 09:36:24;;;;;;;25.60;13.30;;;;;;;5.99;54.81;102276.84;5031156;28;20152;-71
2022/12/01 09:38:52;;;;;;;25.77;12.85;;;;;;;5.99;54.95;102276.84;5030866;28;20087;-70
2022/12/01 09:41:24;;;;;;;24.60;12.45;;;;;;;6.00;54.94;102288.59;5030820;28;20049;-69
2022/12/01 09:43:59;;;;;;;24.42;12.02;;;;;;;6.00;55.20;102275.00;5030229;28;20169;-69
2022/12/01 09:46:33;;;;;;;25.67;11.63;;;;;;;6.00;54.71;102284.03;5030898;28;20071;-69
2022/12/01 09:49:03;;;;;;;20.98;11.73;;;;;;;6.01;55.24;102279.50;5006049;28;20058;-71
2022/12/01 09:51:34;;;;;;;23.65;10.95;;;;;;;6.03;55.22;102283.03;5043457;28;20056;-70
2022/12/01 09:54:03;;;;;;;22.60;11.35;;;;;;;6.02;54.88;102278.53;5030221;28;20567;-70
2022/12/01 09:56:39;;;;;;;23.20;11.38;;;;;;;6.04;55.20;102276.59;5031715;28;20049;-70
2022/12/01 09:59:21;;;;;;;22.67;11.10;;;;;;;6.05;54.98;102281.09;5029929;28;20064;-70
2022/12/01 10:01:53;;;;;;;20.88;11.55;;;;;;;6.04;55.21;102272.06;5031627;28;20498;-70
2022/12/01 10:04:26;;;;;;;24.33;12.50;;;;;;;6.03;55.36;102269.44;5030200;28;20501;-70
2022/12/01 10:06:59;;;;;;;25.27;12.02;;;;;;;6.06;55.19;102272.00;5029827;28;20144;-70
2022/12/01 10:09:34;;;;;;;22.25;11.43;;;;;;;6.05;55.12;102268.41;5032279;28;20052;-70
2022/12/01 10:12:12;;;;;;;22.38;11.57;;;;;;;6.09;55.39;102271.88;5051130;28;20041;-69
2022/12/01 10:14:43;;;;;;;22.70;11.65;;;;;;;6.10;55.08;102270.03;5047425;28;20049;-70
2022/12/01 10:17:22;;;;;;;21.73;11.18;;;;;;;6.13;55.33;102272.59;5051580;28;20459;-70
2022/12/01 10:19:58;;;;;;;22.27;10.90;;;;;;;6.13;55.20;102262.59;5049750;28;20094;-70
2022/12/01 10:22:45;;;;;;;23.33;11.60;;;;;;;6.14;55.30;102271.63;5049692;28;20081;-70
2022/12/01 10:25:20;;;;;;;25.75;11.73;;;;;;;6.13;55.06;102268.03;5049178;28;20127;-70
2022/12/01 10:28:05;;;;;;;24.05;11.98;;;;;;;6.15;55.00;102267.97;5050040;28;20144;-70
2022/12/01 10:30:42;;;;;;;25.38;12.13;;;;;;;6.15;55.18;102274.28;5048846;28;20041;-70
2022/12/01 10:33:22;;;;;;;24.52;12.90;;;;;;;6.15;55.16;102266.13;5049401;28;20045;-70
2022/12/01 10:35:50;;;;;;;20.77;10.70;;;;;;;6.14;55.15;102266.19;5049618;28;20132;-70
2022/12/01 10:38:25;;;;;;;22.67;10.82;;;;;;;6.17;55.34;102266.06;5050341;28;20044;-70
2022/12/01 10:40:56;;;;;;;21.80;10.73;;;;;;;6.16;54.98;102265.19;5049720;28;20041;-70
2022/12/01 10:43:31;;;;;;;21.48;11.18;;;;;;;6.17;55.23;102264.22;5048653;28;20079;-70
2022/12/01 10:46:19;;;;;;;19.55;10.60;;;;;;;6.17;55.10;102258.78;5048396;28;20520;-70
2022/12/01 10:48:53;;;;;;;21.05;10.45;;;;;;;6.16;55.16;102259.75;5049161;28;20543;-70
2022/12/01 10:51:22;;;;;;;21.85;11.23;;;;;;;6.14;55.00;102255.31;5050267;28;20521;-70
2022/12/01 10:53:56;;;;;;;22.45;11.20;;;;;;;6.13;54.94;102250.84;5050543;28;20049;-70
2022/12/01 10:56:24;;;;;;;21.58;10.88;;;;;;;6.12;55.11;102255.38;5050031;28;20068;-70
2022/12/01 10:58:58;;;;;;;22.23;11.68;;;;;;;6.11;55.18;102253.66;5047175;28;20059;-69
2022/12/01 11:01:30;;;;;;;21.48;10.98;;;;;;;6.11;54.93;102255.50;5049914;28;20121;-70
2022/12/01 11:04:05;;;;;;;21.33;11.25;;;;;;;6.06;55.14;102253.84;5049201;28;20053;-70
2022/12/01 11:06:37;;;;;;;22.23;11.90;;;;;;;6.08;55.10;102253.78;5048697;28;20108;-70
2022/12/01 11:09:07;;;;;;;20.90;11.13;;;;;;;6.05;55.21;102254.81;5048860;28;20073;-69
2022/12/01 11:11:37;;;;;;;20.17;10.32;;;;;;;6.06;55.08;102250.25;5049841;28;20045;-70
2022/12/01 11:14:16;;;;;;;21.20;11.68;;;;;;;6.05;55.20;102249.38;5048892;28;20040;-70
2022/12/01 11:16:47;;;;;;;24.55;11.82;;;;;;;6.06;55.30;102247.53;5050136;28;20544;-70
2022/12/01 11:19:29;;;;;;;22.85;11.55;;;;;;;6.06;55.27;102245.69;5046777;28;20513;-70
2022/12/01 11:21:59;;;;;;;20.10;11.17;;;;;;;6.04;55.20;102252.16;5050198;28;20150;-69
2022/12/01 11:24:40;;;;;;;20.40;11.13;;;;;;;6.05;54.78;102252.09;5049099;28;20577;-69
2022/12/01 11:27:16;;;;;;;19.40;11.52;;;;;;;6.06;54.66;102252.97;5048161;28;20607;-69
2022/12/01 11:29:47;;;;;;;19.05;11.20;;;;;;;6.01;55.29;102249.59;5048631;28;20044;-69
2022/12/01 11:32:21;;;;;;;23.10;12.68;;;;;;;6.00;54.65;102246.00;5049013;28;20098;-69
2022/12/01 11:34:53;;;;;;;22.38;12.23;;;;;;;6.00;54.65;102242.41;5048828;28;20049;-69
2022/12/01 11:37:24;;;;;;;22.60;12.30;;;;;;;5.99;54.49;102243.34;5049516;28;20102;-69
2022/12/01 11:39:55;;;;;;;21.25;11.88;;;;;;;5.98;54.87;102245.19;5047667;28;20535;-70